createdAt,value
2022-11-03T00:01:14.402Z,101120.69
2022-11-03T00:03:42.336Z,101116.75
2022-11-03T00:06:10.321Z,101129.72
2022-11-03T00:08:40.777Z,101124.75
2022-11-03T00:11:11.375Z,101133.00
2022-11-03T00:13:40.956Z,101139.06
2022-11-03T00:16:10.285Z,101132.09
2022-11-03T00:18:40.049Z,101131.75
2022-11-03T00:21:09.872Z,101127.34
2022-11-03T00:23:39.737Z,101121.47
2022-11-03T00:26:10.299Z,101136.19
2022-11-03T00:28:38.986Z,101139.97
2022-11-03T00:31:09.515Z,101131.63
2022-11-03T00:33:39.708Z,101150.16
2022-11-03T00:36:08.864Z,101154.53
2022-11-03T00:38:37.753Z,101159.41
2022-11-03T00:41:07.058Z,101153.47
2022-11-03T00:43:36.752Z,101152.72
2022-11-03T00:46:06.303Z,101137.34
2022-11-03T00:48:35.324Z,101155.97
2022-11-03T00:51:07.758Z,101153.56
2022-11-03T00:53:37.748Z,101151.97
2022-11-03T00:56:07.202Z,101160.28
2022-11-03T00:58:35.336Z,101166.50
2022-11-03T01:01:05.607Z,101165.72
2022-11-03T01:03:34.768Z,101135.41
2022-11-03T01:06:24.349Z,101153.34
2022-11-03T01:08:52.333Z,101150.13
2022-11-03T01:11:39.891Z,101147.31
2022-11-03T01:14:08.979Z,101148.16
2022-11-03T01:16:36.901Z,101138.88
2022-11-03T01:19:05.276Z,101138.44
2022-11-03T01:21:34.783Z,101140.75
2022-11-03T01:24:02.997Z,101142.56
2022-11-03T01:26:31.653Z,101144.94
2022-11-03T01:29:01.227Z,101142.44
2022-11-03T01:31:30.040Z,101147.16
2022-11-03T01:33:58.624Z,101142.13
2022-11-03T01:36:27.428Z,101154.44
2022-11-03T01:38:57.209Z,101161.66
2022-11-03T01:41:27.856Z,101166.34
2022-11-03T01:44:30.136Z,101163.72
2022-11-03T01:47:02.750Z,101167.78
2022-11-03T01:49:36.756Z,101156.88
2022-11-03T01:52:07.171Z,101167.78
2022-11-03T01:54:37.971Z,101173.19
2022-11-03T01:57:10.266Z,101165.75
2022-11-03T01:59:39.060Z,101185.50
2022-11-03T02:02:07.693Z,101185.31
2022-11-03T02:04:36.824Z,101184.69
2022-11-03T02:07:15.390Z,101188.19
2022-11-03T02:09:44.724Z,101193.28
2022-11-03T02:12:13.211Z,101190.69
2022-11-03T02:14:46.390Z,101188.75
2022-11-03T02:17:15.910Z,101198.59
2022-11-03T02:19:48.022Z,101193.03
2022-11-03T02:22:31.165Z,101194.19
2022-11-03T02:25:08.342Z,101192.91
2022-11-03T02:27:37.731Z,101181.91
2022-11-03T02:30:06.279Z,101185.50
2022-11-03T02:32:41.852Z,101182.78
2022-11-03T02:35:15.855Z,101180.13
2022-11-03T02:37:45.782Z,101184.44
2022-11-03T02:40:16.743Z,101186.72
2022-11-03T02:42:49.099Z,101179.13
2022-11-03T02:45:20.374Z,101180.06
2022-11-03T02:47:50.342Z,101180.38
2022-11-03T02:50:20.101Z,101172.44
2022-11-03T02:52:49.498Z,101171.88
2022-11-03T02:55:22.882Z,101185.28
2022-11-03T02:57:58.540Z,101183.91
2022-11-03T03:00:26.509Z,101200.09
2022-11-03T03:03:00.616Z,101187.28
2022-11-03T03:05:33.749Z,101208.09
2022-11-03T03:08:07.258Z,101211.50
2022-11-03T03:10:39.686Z,101207.19
2022-11-03T03:13:10.727Z,101222.28
2022-11-03T03:15:46.470Z,101215.59
2022-11-03T03:18:21.488Z,101223.22
2022-11-03T03:20:56.117Z,101210.75
2022-11-03T03:23:27.546Z,101227.94
2022-11-03T03:26:01.914Z,101225.97
2022-11-03T03:28:37.960Z,101229.16
2022-11-03T03:31:10.268Z,101237.81
2022-11-03T03:33:42.097Z,101235.41
2022-11-03T03:36:17.111Z,101234.06
2022-11-03T03:38:50.280Z,101236.31
2022-11-03T03:41:22.917Z,101221.41
2022-11-03T03:43:54.884Z,101233.78
2022-11-03T03:46:26.029Z,101242.44
2022-11-03T03:48:54.387Z,101210.28
2022-11-03T03:51:27.068Z,101213.91
2022-11-03T03:53:55.741Z,101234.50
2022-11-03T03:56:29.141Z,101246.34
2022-11-03T03:58:58.560Z,101245.56
2022-11-03T04:01:26.655Z,101243.59
2022-11-03T04:03:55.352Z,101239.06
2022-11-03T04:06:23.285Z,101228.16
2022-11-03T04:08:51.240Z,101227.50
2022-11-03T04:11:36.538Z,101218.06
2022-11-03T04:14:23.169Z,101219.31
2022-11-03T04:17:08.295Z,101218.78
2022-11-03T04:19:53.709Z,101194.94
2022-11-03T04:22:22.403Z,101218.38
2022-11-03T04:24:51.884Z,101221.59
2022-11-03T04:27:35.520Z,101220.59
2022-11-03T04:30:17.622Z,101215.63
2022-11-03T04:32:46.613Z,101211.84
2022-11-03T04:35:19.586Z,101233.50
2022-11-03T04:37:52.437Z,101221.75
2022-11-03T04:40:20.523Z,101217.28
2022-11-03T04:42:48.648Z,101217.53
2022-11-03T04:45:24.668Z,101229.72
2022-11-03T04:47:54.119Z,101234.53
2022-11-03T04:50:24.684Z,101223.44
2022-11-03T04:52:57.500Z,101241.75
2022-11-03T04:55:26.305Z,101228.31
2022-11-03T04:57:58.932Z,101241.84
2022-11-03T05:00:28.431Z,101251.84
2022-11-03T05:02:56.779Z,101261.41
2022-11-03T05:05:26.473Z,101269.63
2022-11-03T05:07:56.751Z,101265.59
2022-11-03T05:10:27.555Z,101272.47
2022-11-03T05:12:56.450Z,101265.91
2022-11-03T05:15:36.737Z,101282.63
2022-11-03T05:18:15.320Z,101261.91
2022-11-03T05:20:46.402Z,101285.50
2022-11-03T05:23:15.321Z,101279.97
2022-11-03T05:25:44.874Z,101291.63
2022-11-03T05:28:23.248Z,101299.69
2022-11-03T05:30:53.528Z,101298.09
2022-11-03T05:33:27.469Z,101293.34
2022-11-03T05:35:56.405Z,101306.91
2022-11-03T05:38:25.224Z,101307.06
2022-11-03T05:40:55.051Z,101304.13
2022-11-03T05:43:23.091Z,101313.13
2022-11-03T05:45:56.753Z,101292.44
2022-11-03T05:48:32.569Z,101317.44
2022-11-03T05:51:02.004Z,101315.66
2022-11-03T05:53:32.113Z,101314.09
2022-11-03T05:56:02.651Z,101303.97
2022-11-03T05:58:35.044Z,101313.88
2022-11-03T06:01:12.470Z,101309.78
2022-11-03T06:03:40.969Z,101316.03
2022-11-03T06:06:17.496Z,101319.75
2022-11-03T06:08:46.279Z,101322.84
2022-11-03T06:11:25.864Z,101330.84
2022-11-03T06:13:53.810Z,101325.41
2022-11-03T06:16:37.891Z,101337.03
2022-11-03T06:19:19.698Z,101338.53
2022-11-03T06:21:48.864Z,101327.66
2022-11-03T06:24:18.840Z,101326.19
2022-11-03T06:26:48.416Z,101338.69
2022-11-03T06:29:18.408Z,101333.41
2022-11-03T06:31:50.621Z,101327.75
2022-11-03T06:34:38.672Z,101351.03
2022-11-03T06:37:17.040Z,101353.66
2022-11-03T06:39:44.987Z,101362.66
2022-11-03T06:42:14.532Z,101357.97
2022-11-03T06:44:44.153Z,101360.00
2022-11-03T06:47:23.668Z,101370.69
2022-11-03T06:49:53.000Z,101363.22
2022-11-03T06:52:29.867Z,101376.34
2022-11-03T06:55:20.009Z,101382.63
2022-11-03T06:57:49.758Z,101377.28
2022-11-03T07:00:40.334Z,101380.97
2022-11-03T07:03:15.115Z,101382.94
2022-11-03T07:05:45.264Z,101376.50
2022-11-03T07:08:22.740Z,101386.34
2022-11-03T07:10:52.333Z,101382.25
2022-11-03T07:13:24.979Z,101385.50
2022-11-03T07:15:53.321Z,101387.75
2022-11-03T07:18:25.025Z,101387.47
2022-11-03T07:20:54.952Z,101398.66
2022-11-03T07:23:25.681Z,101366.66
2022-11-03T07:25:55.464Z,101389.94
2022-11-03T07:28:27.891Z,101394.50
2022-11-03T07:30:55.888Z,101394.03
2022-11-03T07:33:28.848Z,101382.16
2022-11-03T07:36:15.924Z,101398.59
2022-11-03T07:38:46.049Z,101401.94
2022-11-03T07:41:19.396Z,101379.53
2022-11-03T07:43:52.639Z,101401.66
2022-11-03T07:46:22.425Z,101401.22
2022-11-03T07:48:55.412Z,101414.13
2022-11-03T07:51:26.343Z,101401.22
2022-11-03T07:53:56.553Z,101397.53
2022-11-03T07:56:26.411Z,101373.31
2022-11-03T07:58:59.966Z,101402.72
2022-11-03T08:01:30.942Z,101403.31
2022-11-03T08:04:04.180Z,101400.19
2022-11-03T08:06:32.320Z,101398.06
2022-11-03T08:09:00.441Z,101399.25
2022-11-03T08:11:29.652Z,101384.66
2022-11-03T08:13:58.286Z,101394.66
2022-11-03T08:16:26.512Z,101388.22
2022-11-03T08:18:54.512Z,101399.19
2022-11-03T08:21:24.083Z,101376.03
2022-11-03T08:23:52.491Z,101385.22
2022-11-03T08:26:20.620Z,101374.84
2022-11-03T08:28:48.664Z,101356.38
2022-11-03T08:31:17.013Z,101373.84
2022-11-03T08:33:45.057Z,101370.50
2022-11-03T08:36:12.984Z,101369.94
2022-11-03T08:38:42.427Z,101365.19
2022-11-03T08:41:10.526Z,101376.72
2022-11-03T08:43:38.491Z,101381.25
2022-11-03T08:46:15.828Z,101372.66
2022-11-03T08:48:46.102Z,101369.44
2022-11-03T08:51:14.939Z,101364.75
2022-11-03T08:53:44.764Z,101368.97
2022-11-03T08:56:15.104Z,101363.75
2022-11-03T08:58:44.412Z,101359.78
2022-11-03T09:01:12.495Z,101372.81
2022-11-03T09:03:40.615Z,101362.03
2022-11-03T09:06:10.839Z,101370.38
2022-11-03T09:11:28.592Z,101357.88
2022-11-03T09:13:57.994Z,101356.91
2022-11-03T09:16:26.438Z,101351.81
2022-11-03T09:18:54.371Z,101355.34
2022-11-03T09:21:22.290Z,101342.22
2022-11-03T09:23:50.281Z,101336.59
2022-11-03T09:26:18.228Z,101335.38
2022-11-03T09:28:47.532Z,101329.13
2022-11-03T09:31:15.449Z,101335.22
2022-11-03T09:33:43.410Z,101329.56
2022-11-03T09:36:11.605Z,101320.47
2022-11-03T09:38:39.563Z,101317.56
2022-11-03T09:41:18.670Z,101318.53
2022-11-03T09:43:58.795Z,101312.38
2022-11-03T09:46:27.862Z,101310.75
2022-11-03T09:48:56.914Z,101308.63
2022-11-03T09:51:27.047Z,101300.66
2022-11-03T09:53:57.709Z,101303.94
2022-11-03T09:56:27.417Z,101302.25
2022-11-03T09:58:56.745Z,101300.38
2022-11-03T10:01:25.225Z,101299.50
2022-11-03T10:03:53.762Z,101292.13
2022-11-03T10:06:22.504Z,101293.13
2022-11-03T10:08:50.940Z,101291.88
2022-11-03T10:11:19.289Z,101285.78
2022-11-03T10:13:49.159Z,101287.03
2022-11-03T10:16:21.506Z,101274.53
2022-11-03T10:18:50.468Z,101282.03
2022-11-03T10:21:20.922Z,101270.72
2022-11-03T10:23:50.406Z,101267.66
2022-11-03T10:26:20.584Z,101266.78
2022-11-03T10:29:04.350Z,101265.25
2022-11-03T10:31:38.429Z,101270.53
2022-11-03T10:34:07.612Z,101251.38
2022-11-03T10:36:36.341Z,101248.31
2022-11-03T10:39:26.690Z,101248.88
2022-11-03T10:41:59.552Z,101246.53
2022-11-03T10:44:29.492Z,101238.78
2022-11-03T10:47:00.122Z,101231.00
2022-11-03T10:49:30.213Z,101232.66
2022-11-03T10:52:14.533Z,101222.81
2022-11-03T10:54:42.729Z,101230.88
2022-11-03T10:57:10.683Z,101225.13
2022-11-03T10:59:39.627Z,101221.41
2022-11-03T11:02:18.573Z,101225.84
2022-11-03T11:04:49.106Z,101214.78
2022-11-03T11:07:24.910Z,101220.31
2022-11-03T11:09:53.446Z,101212.00
2022-11-03T11:12:24.773Z,101209.19
2022-11-03T11:14:55.107Z,101203.91
2022-11-03T11:17:45.536Z,101206.16
2022-11-03T11:20:34.265Z,101192.69
2022-11-03T11:23:47.821Z,101190.88
2022-11-03T11:26:18.622Z,101195.19
2022-11-03T11:28:48.467Z,101186.72
2022-11-03T11:31:31.088Z,101187.28
2022-11-03T11:34:35.436Z,101184.22
2022-11-03T11:37:36.790Z,101184.31
2022-11-03T11:40:13.607Z,101183.66
2022-11-03T11:43:19.013Z,101169.91
2022-11-03T11:46:24.324Z,101169.47
2022-11-03T11:49:03.281Z,101173.22
2022-11-03T11:51:34.799Z,101158.09
2022-11-03T11:54:17.638Z,101154.34
2022-11-03T11:56:48.593Z,101146.16
2022-11-03T11:59:25.167Z,101149.06
2022-11-03T12:01:56.449Z,101139.88
2022-11-03T12:04:28.130Z,101146.97
2022-11-03T12:06:57.572Z,101143.22
2022-11-03T12:09:28.915Z,101135.88
2022-11-03T12:12:00.768Z,101132.56
2022-11-03T12:14:37.584Z,101083.16
2022-11-03T12:17:33.229Z,101119.09
2022-11-03T12:20:01.135Z,101134.78
2022-11-03T12:22:43.355Z,101131.03
2022-11-03T12:25:36.148Z,101128.09
2022-11-03T12:28:04.593Z,101126.59
2022-11-03T12:30:38.464Z,101122.81
2022-11-03T12:33:08.084Z,101117.00
2022-11-03T12:35:36.344Z,101108.66
2022-11-03T12:38:04.290Z,101109.94
2022-11-03T12:40:32.197Z,101116.19
2022-11-03T12:43:01.507Z,101117.19
2022-11-03T12:45:29.455Z,101091.22
2022-11-03T12:47:57.413Z,101105.66
2022-11-03T12:50:25.328Z,101117.03
2022-11-03T12:52:53.334Z,101104.53
2022-11-03T12:55:21.328Z,101100.34
2022-11-03T12:57:49.463Z,101104.22
2022-11-03T13:00:19.395Z,101103.81
2022-11-03T13:02:47.550Z,101101.44
2022-11-03T13:05:15.736Z,101098.94
2022-11-03T13:07:43.909Z,101100.72
2022-11-03T13:10:11.895Z,101100.06
2022-11-03T13:12:41.643Z,101099.50
2022-11-03T13:15:13.564Z,101095.19
2022-11-03T13:20:31.536Z,101103.66
2022-11-03T13:22:59.623Z,101091.69
2022-11-03T13:25:29.000Z,101090.03
2022-11-03T13:27:57.339Z,101086.28
2022-11-03T13:30:27.017Z,101080.06
2022-11-03T13:32:56.317Z,101092.81
2022-11-03T13:35:24.477Z,101082.78
2022-11-03T13:37:52.558Z,101083.53
2022-11-03T13:40:55.697Z,101088.22
2022-11-03T13:43:09.155Z,101096.97
2022-11-03T13:45:37.277Z,101092.53
2022-11-03T13:49:21.580Z,101089.75
2022-11-03T13:50:56.180Z,101087.13
2022-11-03T13:56:17.244Z,101092.56
2022-11-03T14:01:37.796Z,101099.22
2022-11-03T14:06:55.768Z,101093.59
2022-11-03T14:09:23.728Z,101086.53
2022-11-03T14:12:09.431Z,101083.78
2022-11-03T14:14:37.439Z,101085.47
2022-11-03T14:17:05.372Z,101080.03
2022-11-03T14:19:39.808Z,101090.75
2022-11-03T14:22:10.948Z,101088.19
2022-11-03T14:24:38.963Z,101083.84
2022-11-03T14:27:07.052Z,101079.59
2022-11-03T14:29:36.132Z,101082.69
2022-11-03T14:32:04.045Z,101079.09
2022-11-03T14:34:32.113Z,101078.72
2022-11-03T14:37:01.562Z,101081.13
2022-11-03T14:39:29.520Z,101072.22
2022-11-03T14:42:06.637Z,101070.50
2022-11-03T14:44:36.135Z,101051.72
2022-11-03T14:47:05.385Z,101073.81
2022-11-03T14:49:34.844Z,101073.59
2022-11-03T14:52:07.053Z,101076.94
2022-11-03T14:54:35.760Z,101074.88
2022-11-03T14:57:04.542Z,101092.94
2022-11-03T14:59:32.920Z,101078.56
2022-11-03T15:02:01.479Z,101079.69
2022-11-03T15:04:29.497Z,101083.63
2022-11-03T15:06:57.420Z,101083.00
2022-11-03T15:09:26.738Z,101090.72
2022-11-03T15:11:54.647Z,101086.63
2022-11-03T15:14:22.601Z,101091.75
2022-11-03T15:16:50.519Z,101085.78
2022-11-03T15:19:18.465Z,101083.38
2022-11-03T15:21:46.400Z,101088.19
2022-11-03T15:27:03.607Z,101085.59
2022-11-03T15:29:31.515Z,101085.72
2022-11-03T15:31:59.413Z,101085.25
2022-11-03T15:34:27.319Z,101087.16
2022-11-03T15:36:55.266Z,101083.38
2022-11-03T15:39:23.673Z,101084.91
2022-11-03T15:41:51.625Z,101084.16
2022-11-03T15:44:20.929Z,101088.34
2022-11-03T15:46:48.967Z,101081.13
2022-11-03T15:49:16.894Z,101084.06
2022-11-03T15:51:44.811Z,101086.44
2022-11-03T15:54:12.741Z,101077.09
2022-11-03T15:56:40.752Z,101084.88
2022-11-03T15:59:08.678Z,101077.13
2022-11-03T16:01:38.149Z,101085.59
2022-11-03T16:04:06.192Z,101081.06
2022-11-03T16:07:01.697Z,101089.88
2022-11-03T16:09:22.712Z,101079.03
2022-11-03T16:11:50.632Z,101081.63
2022-11-03T16:14:18.605Z,101081.03
2022-11-03T16:16:47.917Z,101090.06
2022-11-03T16:19:15.862Z,101086.41
2022-11-03T16:21:43.775Z,101086.09
2022-11-03T16:24:12.476Z,101089.00
2022-11-03T16:26:40.804Z,101082.56
2022-11-03T16:29:08.760Z,101078.06
2022-11-03T16:31:36.758Z,101074.56
2022-11-03T16:34:06.212Z,101081.06
2022-11-03T16:36:34.168Z,101084.97
2022-11-03T16:39:02.133Z,101084.13
2022-11-03T16:41:30.040Z,101087.22
2022-11-03T16:43:58.082Z,101089.06
2022-11-03T16:46:26.000Z,101086.06
2022-11-03T16:48:53.999Z,101076.97
2022-11-03T16:51:23.412Z,101081.88
2022-11-03T16:53:52.829Z,101086.50
2022-11-03T16:56:20.724Z,101089.09
2022-11-03T16:58:48.650Z,101086.53
2022-11-03T17:01:16.695Z,101087.66
2022-11-03T17:03:44.728Z,101083.34
2022-11-03T17:06:12.638Z,101090.09
2022-11-03T17:08:57.236Z,101091.88
2022-11-03T17:11:36.986Z,101088.09
2022-11-03T17:14:06.763Z,101085.59
2022-11-03T17:16:34.983Z,101087.69
2022-11-03T17:19:02.977Z,101085.63
2022-11-03T17:21:30.912Z,101079.56
2022-11-03T17:24:00.390Z,101080.50
2022-11-03T17:26:37.810Z,101071.63
2022-11-03T17:29:14.725Z,101069.22
2022-11-03T17:31:42.821Z,101065.41
2022-11-03T17:34:13.054Z,101064.97
2022-11-03T17:36:41.434Z,101067.13
2022-11-03T17:39:15.855Z,101067.06
2022-11-03T17:41:44.147Z,101059.75
2022-11-03T17:44:12.845Z,101060.44
2022-11-03T17:46:41.349Z,101052.13
2022-11-03T17:49:09.566Z,101042.50
2022-11-03T17:51:41.992Z,101057.25
2022-11-03T17:54:16.896Z,101041.59
2022-11-03T17:56:44.967Z,101037.19
2022-11-03T17:59:15.934Z,101032.50
2022-11-03T18:01:45.360Z,101035.66
2022-11-03T18:06:43.144Z,101041.41
2022-11-03T18:09:12.451Z,101025.31
2022-11-03T18:12:00.646Z,101022.38
2022-11-03T18:14:29.926Z,101022.28
2022-11-03T18:17:03.843Z,101021.22
2022-11-03T18:19:31.990Z,101014.66
2022-11-03T18:22:00.006Z,101014.03
2022-11-03T18:24:29.918Z,101009.44
2022-11-03T18:26:58.172Z,101004.50
2022-11-03T18:29:26.166Z,100968.47
2022-11-03T18:31:54.218Z,101006.72
2022-11-03T18:34:25.138Z,101005.88
2022-11-03T18:36:53.285Z,100984.13
2022-11-03T18:39:24.348Z,101001.25
2022-11-03T18:41:53.737Z,100999.91
2022-11-03T18:44:23.075Z,100981.22
2022-11-03T18:46:52.423Z,100994.09
2022-11-03T18:49:20.861Z,100979.94
2022-11-03T18:51:51.205Z,100988.88
2022-11-03T18:54:21.840Z,100982.91
2022-11-03T18:56:51.100Z,100980.78
2022-11-03T18:59:25.877Z,100983.31
2022-11-03T19:01:54.351Z,100997.09
2022-11-03T19:04:22.661Z,100993.84
2022-11-03T19:06:52.884Z,100991.25
2022-11-03T19:09:24.759Z,100983.75
2022-11-03T19:11:54.459Z,100987.06
2022-11-03T19:14:26.744Z,100985.59
2022-11-03T19:19:44.734Z,100986.97
2022-11-03T19:22:14.937Z,100983.28
2022-11-03T19:24:43.104Z,100992.31
2022-11-03T19:27:16.354Z,100979.53
2022-11-03T19:29:48.161Z,100980.06
2022-11-03T19:32:19.660Z,100973.69
2022-11-03T19:34:49.537Z,100970.03
2022-11-03T19:37:17.796Z,100980.56
2022-11-03T19:39:45.803Z,100985.97
2022-11-03T19:42:31.351Z,100982.00
2022-11-03T19:45:02.074Z,100989.84
2022-11-03T19:47:33.297Z,100976.69
2022-11-03T19:50:02.572Z,100978.38
2022-11-03T19:52:32.790Z,100976.09
2022-11-03T19:55:05.661Z,100942.63
2022-11-03T19:57:34.136Z,100983.47
2022-11-03T20:00:03.537Z,100978.84
2022-11-03T20:02:31.584Z,100975.50
2022-11-03T20:04:59.589Z,100974.53
2022-11-03T20:07:31.495Z,100972.75
2022-11-03T20:10:01.391Z,100976.50
2022-11-03T20:12:30.862Z,100978.16
2022-11-03T20:14:58.985Z,100971.97
2022-11-03T20:17:28.270Z,100978.72
2022-11-03T20:19:56.174Z,100974.44
2022-11-03T20:22:29.859Z,100969.16
2022-11-03T20:25:01.378Z,100967.91
2022-11-03T20:27:29.323Z,100976.69
2022-11-03T20:29:57.549Z,100971.47
2022-11-03T20:32:25.473Z,100963.53
2022-11-03T20:34:55.180Z,100969.59
2022-11-03T20:37:23.127Z,100961.13
2022-11-03T20:39:51.192Z,100968.34
2022-11-03T20:42:22.584Z,100962.75
2022-11-03T20:44:50.712Z,100958.28
2022-11-03T20:47:19.619Z,100966.75
2022-11-03T20:49:47.712Z,100966.00
2022-11-03T20:52:17.482Z,100955.16
2022-11-03T20:54:45.820Z,100956.81
2022-11-03T20:57:14.497Z,100931.13
2022-11-03T20:59:42.744Z,100959.22
2022-11-03T21:02:13.076Z,100951.97
2022-11-03T21:04:41.494Z,100948.53
2022-11-03T21:07:13.068Z,100945.31
2022-11-03T21:09:42.387Z,100941.97
2022-11-03T21:12:14.778Z,100937.59
2022-11-03T21:15:11.269Z,100939.56
2022-11-03T21:17:56.416Z,100930.22
2022-11-03T21:20:24.335Z,100935.75
2022-11-03T21:22:53.772Z,100936.38
2022-11-03T21:25:25.008Z,100933.25
2022-11-03T21:27:54.350Z,100936.78
2022-11-03T21:30:23.724Z,100935.44
2022-11-03T21:32:51.885Z,100938.78
2022-11-03T21:35:22.076Z,100944.84
2022-11-03T21:37:50.216Z,100951.06
2022-11-03T21:40:18.803Z,100946.97
2022-11-03T21:43:05.234Z,100951.25
2022-11-03T21:45:33.436Z,100948.03
2022-11-03T21:48:19.650Z,100947.22
2022-11-03T21:50:48.100Z,100943.41
2022-11-03T21:53:16.072Z,100939.78
2022-11-03T21:55:44.031Z,100937.34
2022-11-03T21:58:13.353Z,100939.72
2022-11-03T22:00:41.268Z,100935.75
2022-11-03T22:03:09.413Z,100935.75
2022-11-03T22:05:37.543Z,100932.16
2022-11-03T22:08:08.603Z,100934.94
2022-11-03T22:10:39.326Z,100937.56
2022-11-03T22:13:07.514Z,100930.38
2022-11-03T22:15:54.651Z,100937.50
2022-11-03T22:18:22.806Z,100940.09
2022-11-03T22:21:08.014Z,100936.97
2022-11-03T22:24:07.896Z,100932.69
2022-11-03T22:26:53.156Z,100930.25
2022-11-03T22:29:43.988Z,100924.19
2022-11-03T22:32:16.270Z,100919.91
2022-11-03T22:35:02.112Z,100920.66
2022-11-03T22:40:16.941Z,100894.22
2022-11-03T22:43:02.392Z,100895.69
2022-11-03T22:45:47.862Z,100888.28
2022-11-03T22:48:17.365Z,100878.97
2022-11-03T22:50:45.553Z,100871.38
2022-11-03T22:53:30.731Z,100878.47
2022-11-03T22:56:00.644Z,100867.28
2022-11-03T22:58:30.640Z,100855.44
2022-11-03T23:00:58.893Z,100868.63
2022-11-03T23:03:31.821Z,100879.22
2022-11-03T23:06:01.962Z,100871.97
2022-11-03T23:08:32.556Z,100868.28
2022-11-03T23:11:09.088Z,100874.41
2022-11-03T23:13:37.448Z,100876.91
2022-11-03T23:16:16.596Z,100871.06
2022-11-03T23:19:04.023Z,100870.13
2022-11-03T23:21:33.220Z,100867.97
2022-11-03T23:24:19.276Z,100852.81
2022-11-03T23:26:47.579Z,100874.38
2022-11-03T23:29:16.428Z,100864.91
2022-11-03T23:31:45.580Z,100863.13
2022-11-03T23:34:15.488Z,100848.06
2022-11-03T23:36:43.904Z,100854.88
2022-11-03T23:39:13.779Z,100856.91
2022-11-03T23:41:42.443Z,100852.91
2022-11-03T23:44:11.119Z,100855.53
2022-11-03T23:46:56.428Z,100849.94
2022-11-03T23:49:25.769Z,100847.63
2022-11-03T23:51:53.826Z,100849.38
2022-11-03T23:54:21.769Z,100842.22
2022-11-03T23:57:07.765Z,100839.63
2022-11-03T23:59:36.132Z,100839.81
